Time;durP1;ratioP1;P1;durP2;ratioP2;P2;SDS_P1;SDS_P2;PMS_P1;PMS_P2;Temp;Humidity;BMP_temperature;BMP_pressure;BME280_temperature;BME280_humidity;BME280_pressure;Samples;Min_cycle;Max_cycle;Signal;HPM_P1;HPM_P2
2022/02/01 00:03:46;;;;;;;18.52;3.67;;;5.90;99.90;;;;;;5009491;28;20189;-77
2022/02/01 00:06:19;;;;;;;11.05;2.80;;;5.90;99.90;;;;;;5004571;28;20179;-77
2022/02/01 00:11:51;;;;;;;13.75;2.88;;;5.80;99.90;;;;;;4960071;28;20191;-77
2022/02/01 00:14:29;;;;;;;11.20;2.42;;;5.70;99.90;;;;;;4994632;28;20194;-77
2022/02/01 00:19:50;;;;;;;16.35;2.53;;;5.70;99.90;;;;;;4994585;28;20559;-77
2022/02/01 00:38:21;;;;;;;10.88;3.03;;;5.50;99.90;;;;;;4994575;28;20197;-78
2022/02/01 00:40:54;;;;;;;5.75;1.50;;;5.50;99.90;;;;;;5008817;28;20182;-78
2022/02/01 00:43:20;;;;;;;13.77;2.00;;;5.50;99.90;;;;;;5012059;28;20175;-78
2022/02/01 00:45:49;;;;;;;16.17;2.47;;;5.40;99.90;;;;;;4986550;28;20182;-78
2022/02/01 00:48:15;;;;;;;9.40;2.28;;;5.40;99.90;;;;;;5012091;28;20220;-78
2022/02/01 00:50:41;;;;;;;7.00;2.10;;;5.40;99.90;;;;;;5010305;28;20202;-78
2022/02/01 00:53:06;;;;;;;7.50;1.83;;;5.40;99.90;;;;;;4986840;28;20174;-78
2022/02/01 00:55:32;;;;;;;13.90;2.50;;;5.40;99.90;;;;;;4994049;28;20950;-78
2022/02/01 00:57:58;;;;;;;11.40;2.87;;;5.40;99.90;;;;;;4979682;28;21288;-78
2022/02/01 01:00:24;;;;;;;9.23;2.33;;;5.40;99.90;;;;;;5002675;28;20179;-78
2022/02/01 01:02:50;;;;;;;11.90;2.13;;;5.40;99.90;;;;;;4982741;28;20189;-78
2022/02/01 01:05:15;;;;;;;9.80;1.63;;;5.40;99.90;;;;;;4992602;28;20667;-78
2022/02/01 01:07:41;;;;;;;7.60;2.00;;;5.40;99.90;;;;;;5012201;28;20692;-78
2022/02/01 01:10:09;;;;;;;8.57;1.70;;;5.40;99.90;;;;;;5011480;28;20205;-77
2022/02/01 01:12:44;;;;;;;8.95;1.65;;;5.40;99.90;;;;;;4994291;28;20261;-77
2022/02/01 01:15:20;;;;;;;9.13;1.20;;;5.40;99.90;;;;;;4999069;28;20189;-78
2022/02/01 01:18:25;;;;;;;7.88;1.90;;;5.40;99.90;;;;;;4990694;28;20216;-77
2022/02/01 01:45:32;;;;;;;7.47;1.60;;;5.60;99.90;;;;;;5015718;28;20166;-78
2022/02/01 01:53:26;;;;;;;12.85;2.15;;;5.80;99.90;;;;;;4988444;28;20174;-78
2022/02/01 01:55:56;;;;;;;6.77;1.37;;;5.80;99.90;;;;;;4982083;28;20190;-78
2022/02/01 01:58:22;;;;;;;6.55;1.70;;;5.90;99.90;;;;;;5015518;28;20194;-78
2022/02/01 02:03:19;;;;;;;8.48;1.35;;;5.90;99.90;;;;;;5015746;28;20600;-77
2022/02/01 02:05:45;;;;;;;8.40;2.17;;;6.00;99.90;;;;;;4990166;28;20193;-77
2022/02/01 02:08:12;;;;;;;5.60;1.30;;;6.00;99.90;;;;;;5014368;28;20202;-76
2022/02/01 02:10:47;;;;;;;11.48;2.53;;;6.00;99.90;;;;;;5005802;28;20226;-77
2022/02/01 02:16:00;;;;;;;7.82;1.80;;;6.10;99.90;;;;;;5012308;28;20184;-78
2022/02/01 02:18:29;;;;;;;7.55;1.30;;;6.10;99.90;;;;;;5005634;28;20305;-77
2022/02/01 02:20:57;;;;;;;7.22;1.50;;;6.10;99.90;;;;;;5014392;28;20193;-78
2022/02/01 02:23:23;;;;;;;10.45;1.55;;;6.10;99.90;;;;;;5005480;28;20557;-77
2022/02/01 02:25:50;;;;;;;6.10;1.80;;;6.20;99.90;;;;;;4989226;28;20182;-78
2022/02/01 02:28:17;;;;;;;6.60;1.90;;;6.20;99.90;;;;;;5001537;28;20621;-77
2022/02/01 02:30:44;;;;;;;5.60;1.30;;;6.20;99.90;;;;;;5005136;28;20724;-77
2022/02/01 02:33:13;;;;;;;12.25;1.88;;;6.10;99.90;;;;;;5014722;28;20174;-77
2022/02/01 02:35:58;;;;;;;4.68;1.55;;;6.20;99.90;;;;;;4994390;28;20186;-79
2022/02/01 02:38:36;;;;;;;6.85;1.75;;;6.20;99.90;;;;;;5014392;28;20252;-78
2022/02/01 02:46:13;;;;;;;5.10;1.33;;;6.20;99.90;;;;;;5013282;28;20179;-78
2022/02/01 02:48:39;;;;;;;4.33;1.17;;;6.20;99.90;;;;;;5014221;28;20197;-78
2022/02/01 02:51:05;;;;;;;11.30;1.80;;;6.20;99.90;;;;;;4996707;28;20612;-78
2022/02/01 02:53:30;;;;;;;6.10;1.47;;;6.20;99.90;;;;;;5014976;28;20511;-78
2022/02/01 02:55:56;;;;;;;7.40;1.50;;;6.20;99.90;;;;;;5014330;28;20321;-78
2022/02/01 02:58:22;;;;;;;8.63;1.57;;;6.20;99.90;;;;;;5014725;28;20569;-77
2022/02/01 03:00:48;;;;;;;4.75;1.60;;;6.20;99.90;;;;;;4988269;28;20670;-78
2022/02/01 03:03:14;;;;;;;10.80;1.70;;;6.20;99.90;;;;;;4996411;28;20186;-79
2022/02/01 03:05:40;;;;;;;6.73;1.77;;;6.10;99.90;;;;;;4980262;28;20186;-78
2022/02/01 03:08:05;;;;;;;6.93;1.67;;;6.10;99.90;;;;;;4996521;28;20297;-78
2022/02/01 03:10:31;;;;;;;9.30;1.80;;;6.20;99.90;;;;;;4988176;28;20202;-78
2022/02/01 03:13:13;;;;;;;12.30;1.60;;;6.20;99.90;;;;;;4996114;28;20621;-78
2022/02/01 03:15:51;;;;;;;9.63;1.88;;;6.10;99.90;;;;;;4974183;28;20553;-77
2022/02/01 03:21:02;;;;;;;5.00;1.35;;;6.20;99.90;;;;;;5009786;28;20194;-77
2022/02/01 03:23:27;;;;;;;4.90;1.20;;;6.20;99.90;;;;;;5004396;28;20185;-77
2022/02/01 03:25:53;;;;;;;5.40;1.10;;;6.20;99.90;;;;;;5013668;28;20181;-77
2022/02/01 03:28:19;;;;;;;9.13;2.10;;;6.20;99.90;;;;;;4996175;28;20536;-77
2022/02/01 03:30:45;;;;;;;7.73;2.10;;;6.20;99.90;;;;;;4995669;28;20625;-78
2022/02/01 03:33:13;;;;;;;5.75;1.65;;;6.20;99.90;;;;;;5013486;28;20612;-78
2022/02/01 03:35:40;;;;;;;7.80;1.42;;;6.20;99.90;;;;;;4996115;28;20185;-78
2022/02/01 03:38:05;;;;;;;4.30;1.40;;;6.20;99.90;;;;;;5013689;28;20193;-78
2022/02/01 03:40:31;;;;;;;9.83;1.53;;;6.20;99.90;;;;;;5013547;28;20174;-78
2022/02/01 03:42:57;;;;;;;7.07;1.00;;;6.20;99.90;;;;;;5013792;28;20232;-78
2022/02/01 03:45:23;;;;;;;13.33;2.67;;;6.20;99.90;;;;;;4988438;28;20585;-78
2022/02/01 03:47:49;;;;;;;7.03;1.60;;;6.20;99.90;;;;;;5013963;28;20700;-78
2022/02/01 03:50:15;;;;;;;9.90;2.13;;;6.30;99.90;;;;;;5013557;28;20617;-78
2022/02/01 03:52:40;;;;;;;9.50;2.27;;;6.20;99.90;;;;;;5013613;28;20185;-78
2022/02/01 03:55:06;;;;;;;6.47;1.17;;;6.30;99.90;;;;;;4995377;28;20210;-78
2022/02/01 03:57:32;;;;;;;11.07;1.80;;;6.30;99.90;;;;;;5012910;28;20206;-78
2022/02/01 03:59:58;;;;;;;6.90;2.10;;;6.30;99.90;;;;;;5012591;28;20216;-77
2022/02/01 04:02:24;;;;;;;7.07;1.30;;;6.30;99.90;;;;;;5013104;28;20170;-78
2022/02/01 04:04:53;;;;;;;10.80;2.70;;;6.20;99.90;;;;;;5013098;28;20196;-78
2022/02/01 04:07:20;;;;;;;8.02;1.80;;;6.30;99.90;;;;;;5012759;28;20569;-77
2022/02/01 04:09:46;;;;;;;8.05;1.85;;;6.30;99.90;;;;;;5012164;28;20756;-78
2022/02/01 04:12:12;;;;;;;7.57;2.28;;;6.30;99.90;;;;;;5012886;28;20534;-78
2022/02/01 04:14:37;;;;;;;8.30;2.03;;;6.20;99.90;;;;;;5001673;28;20175;-78
2022/02/01 04:17:06;;;;;;;11.03;2.60;;;6.20;99.90;;;;;;4995307;28;20182;-78
2022/02/01 04:19:33;;;;;;;11.13;2.30;;;6.20;99.90;;;;;;4986916;28;21200;-78
2022/02/01 04:22:03;;;;;;;12.18;2.47;;;6.20;99.90;;;;;;4994982;28;20783;-81
2022/02/01 04:24:38;;;;;;;6.05;2.28;;;6.20;99.90;;;;;;5012510;28;20182;-81
2022/02/01 04:27:05;;;;;;;9.13;2.38;;;6.20;99.90;;;;;;4994938;28;20178;-81
2022/02/01 04:29:32;;;;;;;10.43;1.50;;;6.20;99.90;;;;;;4978554;28;20210;-81
2022/02/01 04:31:57;;;;;;;10.63;1.65;;;6.20;99.90;;;;;;5012018;28;20174;-81
2022/02/01 04:34:23;;;;;;;7.70;1.80;;;6.30;99.90;;;;;;5012307;28;20181;-82
2022/02/01 04:36:50;;;;;;;8.87;1.80;;;6.30;99.90;;;;;;5012275;28;20186;-80
2022/02/01 04:39:16;;;;;;;10.32;1.50;;;6.30;99.90;;;;;;4994628;28;20190;-80
2022/02/01 04:41:43;;;;;;;7.80;1.70;;;6.30;99.90;;;;;;5008206;28;20182;-80
2022/02/01 04:44:09;;;;;;;6.85;1.88;;;6.30;99.90;;;;;;4978377;28;20206;-81
2022/02/01 04:46:35;;;;;;;4.03;1.20;;;6.30;99.90;;;;;;5002870;28;20174;-78
2022/02/01 04:49:07;;;;;;;3.83;1.40;;;6.40;99.90;;;;;;4986571;28;20705;-79
2022/02/01 04:51:36;;;;;;;6.00;1.25;;;6.30;99.90;;;;;;5008472;28;20696;-79
2022/02/01 04:54:02;;;;;;;5.00;1.30;;;6.30;99.90;;;;;;5003080;28;20186;-79
2022/02/01 04:56:28;;;;;;;4.55;1.15;;;6.30;99.90;;;;;;5003257;28;20171;-79
2022/02/01 04:58:53;;;;;;;8.40;1.60;;;6.30;99.90;;;;;;5011853;28;20205;-79
2022/02/01 05:01:26;;;;;;;7.93;1.63;;;6.30;99.90;;;;;;5002350;28;20201;-80
2022/02/01 05:03:52;;;;;;;9.70;1.77;;;6.30;99.90;;;;;;5001692;28;20182;-79
2022/02/01 05:06:17;;;;;;;7.83;1.47;;;6.30;99.90;;;;;;4994288;28;20233;-80
2022/02/01 05:08:43;;;;;;;7.90;1.20;;;6.30;99.90;;;;;;4993889;28;20205;-79
2022/02/01 05:11:09;;;;;;;4.43;1.00;;;6.30;99.90;;;;;;4986721;28;20241;-80
2022/02/01 05:16:19;;;;;;;7.32;1.30;;;6.40;99.90;;;;;;5011823;28;20576;-80
2022/02/01 05:18:47;;;;;;;5.70;1.60;;;6.40;99.90;;;;;;4990519;28;20224;-79
2022/02/01 05:21:25;;;;;;;12.82;3.10;;;6.40;99.90;;;;;;4993755;28;20178;-79
2022/02/01 05:23:52;;;;;;;7.95;1.90;;;6.40;99.90;;;;;;5011793;28;20256;-80
2022/02/01 05:26:21;;;;;;;8.45;1.70;;;6.40;99.90;;;;;;5011883;28;20546;-80
2022/02/01 05:28:47;;;;;;;10.23;1.55;;;6.40;99.90;;;;;;4994495;28;20234;-80
2022/02/01 05:31:13;;;;;;;4.63;1.33;;;6.40;99.90;;;;;;4994255;28;20241;-79
2022/02/01 05:33:39;;;;;;;6.50;1.40;;;6.40;99.90;;;;;;5012232;28;20638;-79
2022/02/01 05:36:06;;;;;;;5.03;1.60;;;6.40;99.90;;;;;;5012312;28;20565;-79
2022/02/01 05:38:32;;;;;;;7.07;1.50;;;6.40;99.90;;;;;;4995522;28;20203;-80
2022/02/01 05:40:58;;;;;;;6.22;2.15;;;6.40;99.90;;;;;;4978443;28;20232;-79
2022/02/01 05:43:26;;;;;;;4.83;1.93;;;6.40;99.90;;;;;;5012265;28;20637;-79
2022/02/01 05:45:57;;;;;;;7.72;1.98;;;6.30;99.90;;;;;;5002689;28;20574;-79
2022/02/01 05:48:25;;;;;;;4.82;1.38;;;6.30;99.90;;;;;;4998468;28;20210;-78
2022/02/01 05:50:53;;;;;;;7.07;1.30;;;6.30;99.90;;;;;;4993890;28;20199;-79
2022/02/01 05:53:18;;;;;;;9.43;1.63;;;6.40;99.90;;;;;;5007991;28;20183;-80
2022/02/01 05:55:46;;;;;;;7.63;2.17;;;6.30;99.90;;;;;;5011397;28;20207;-80
2022/02/01 05:58:13;;;;;;;7.28;1.80;;;6.40;99.90;;;;;;5002376;28;20202;-80
2022/02/01 06:00:40;;;;;;;9.65;2.33;;;6.30;99.90;;;;;;4993666;28;20249;-79
2022/02/01 06:03:06;;;;;;;6.25;1.77;;;6.30;99.90;;;;;;4986326;28;20182;-79
2022/02/01 06:05:32;;;;;;;6.17;1.73;;;6.30;99.90;;;;;;4999085;28;20241;-79
2022/02/01 06:07:58;;;;;;;7.70;2.08;;;6.30;99.90;;;;;;5012094;28;20608;-79
2022/02/01 06:10:24;;;;;;;8.03;2.07;;;6.30;99.90;;;;;;4993045;28;20562;-79
2022/02/01 06:12:51;;;;;;;5.27;2.47;;;6.30;99.90;;;;;;4985595;28;20209;-79
2022/02/01 06:15:18;;;;;;;7.90;3.67;;;6.30;99.90;;;;;;4994673;28;20187;-79
2022/02/01 06:17:45;;;;;;;7.65;2.60;;;6.20;99.90;;;;;;5014698;28;20256;-80
2022/02/01 06:20:12;;;;;;;9.98;2.40;;;6.20;99.90;;;;;;4996641;28;20182;-79
2022/02/01 06:22:39;;;;;;;8.68;2.33;;;6.20;99.90;;;;;;5014729;28;20605;-79
2022/02/01 06:25:06;;;;;;;8.77;2.90;;;6.20;99.90;;;;;;5014756;28;20180;-79
2022/02/01 06:27:32;;;;;;;5.82;2.30;;;6.10;99.90;;;;;;4997028;28;20191;-79
2022/02/01 06:29:58;;;;;;;4.87;1.37;;;6.20;99.90;;;;;;5005100;28;20584;-79
2022/02/01 06:32:29;;;;;;;6.93;1.80;;;6.20;99.90;;;;;;4980836;28;20673;-80
2022/02/01 06:34:55;;;;;;;6.60;2.25;;;6.20;99.90;;;;;;4997343;28;20676;-80
2022/02/01 06:37:21;;;;;;;9.20;1.87;;;6.20;99.90;;;;;;5014541;28;20265;-79
2022/02/01 06:39:47;;;;;;;10.00;2.22;;;6.30;99.90;;;;;;5014715;28;20182;-79
2022/02/01 06:42:13;;;;;;;8.73;2.00;;;6.30;99.90;;;;;;5014630;28;20175;-80
2022/02/01 06:44:39;;;;;;;4.60;1.43;;;6.30;99.90;;;;;;5016958;28;20186;-79
2022/02/01 06:47:05;;;;;;;4.47;1.38;;;6.30;99.90;;;;;;5014788;28;20194;-79
2022/02/01 06:49:31;;;;;;;8.73;2.23;;;6.40;99.90;;;;;;4980531;28;20198;-80
2022/02/01 06:51:57;;;;;;;6.20;1.20;;;6.40;99.90;;;;;;4996322;28;20592;-80
2022/02/01 06:54:22;;;;;;;4.50;1.50;;;6.50;99.90;;;;;;4980270;28;20178;-80
2022/02/01 06:56:48;;;;;;;4.83;1.17;;;6.50;99.90;;;;;;5013346;28;20186;-80
2022/02/01 06:59:14;;;;;;;6.43;1.57;;;6.50;99.90;;;;;;4980322;28;20285;-80
2022/02/01 07:01:39;;;;;;;4.50;1.33;;;6.50;99.90;;;;;;4996441;28;20541;-80
2022/02/01 07:04:05;;;;;;;7.00;1.53;;;6.60;99.90;;;;;;4996756;28;20182;-80
2022/02/01 07:06:33;;;;;;;5.50;1.80;;;6.60;99.90;;;;;;5014470;28;20174;-80
2022/02/01 07:09:01;;;;;;;6.80;1.92;;;6.60;99.90;;;;;;5001649;28;20727;-79
2022/02/01 07:11:26;;;;;;;5.88;1.90;;;6.60;99.90;;;;;;4995939;28;20186;-79
2022/02/01 07:13:52;;;;;;;7.17;2.03;;;6.60;99.90;;;;;;5013611;28;20182;-78
2022/02/01 07:16:19;;;;;;;5.93;1.53;;;6.70;99.90;;;;;;4988257;28;20224;-79
2022/02/01 07:18:45;;;;;;;4.00;1.50;;;6.70;99.90;;;;;;5013449;28;20210;-79
2022/02/01 07:21:12;;;;;;;7.95;1.90;;;6.80;99.90;;;;;;5013791;28;20549;-79
2022/02/01 07:23:39;;;;;;;10.93;2.10;;;6.80;99.90;;;;;;4999544;28;20704;-79
2022/02/01 07:26:07;;;;;;;5.18;1.50;;;6.90;99.90;;;;;;5013059;28;20170;-79
2022/02/01 07:28:33;;;;;;;8.60;1.42;;;6.90;99.90;;;;;;5013214;28;20798;-79
2022/02/01 07:30:59;;;;;;;5.50;1.70;;;6.90;99.90;;;;;;5012770;28;20202;-79
2022/02/01 07:33:26;;;;;;;7.65;2.42;;;6.90;99.90;;;;;;5012886;28;20587;-79
2022/02/01 07:35:52;;;;;;;6.10;2.17;;;7.00;99.90;;;;;;5012716;28;20179;-78
2022/02/01 07:38:22;;;;;;;6.25;1.85;;;7.00;99.90;;;;;;5013054;28;20194;-78
2022/02/01 07:40:52;;;;;;;7.45;2.22;;;7.00;99.90;;;;;;4995171;28;20541;-79
2022/02/01 07:43:19;;;;;;;6.32;2.25;;;7.00;99.90;;;;;;4983765;28;20183;-79
2022/02/01 07:45:47;;;;;;;4.70;2.30;;;7.10;99.90;;;;;;4991551;28;20261;-79
2022/02/01 07:48:14;;;;;;;5.22;2.40;;;7.10;99.90;;;;;;5012753;28;20202;-79
2022/02/01 07:50:42;;;;;;;12.95;3.20;;;7.20;99.90;;;;;;5012195;28;20201;-78
2022/02/01 07:53:09;;;;;;;6.15;2.42;;;7.20;99.90;;;;;;4987620;28;20178;-78
2022/02/01 07:55:35;;;;;;;9.57;2.40;;;7.20;99.90;;;;;;5012823;28;20626;-79
2022/02/01 07:58:02;;;;;;;8.27;2.25;;;7.30;99.90;;;;;;5012761;28;20875;-78
2022/02/01 08:00:28;;;;;;;6.95;2.47;;;7.30;99.90;;;;;;4983039;28;20174;-77
2022/02/01 08:02:57;;;;;;;7.50;2.55;;;7.30;99.90;;;;;;5012814;28;20720;-78
2022/02/01 08:05:26;;;;;;;7.82;3.28;;;7.40;99.90;;;;;;4995284;28;20190;-79
2022/02/01 08:07:53;;;;;;;10.00;4.17;;;7.40;99.90;;;;;;5011619;28;20703;-78
2022/02/01 08:10:19;;;;;;;10.63;3.15;;;7.30;99.90;;;;;;4994507;28;21186;-78
2022/02/01 08:20:35;;;;;;;6.68;3.40;;;7.50;99.90;;;;;;5012124;28;20588;-79
2022/02/01 08:23:02;;;;;;;7.50;3.22;;;7.50;99.90;;;;;;4978834;28;20193;-78
2022/02/01 08:25:31;;;;;;;5.25;2.30;;;7.50;99.90;;;;;;5011854;28;20182;-79
2022/02/01 08:27:58;;;;;;;5.93;3.40;;;7.60;99.90;;;;;;5002788;28;20202;-79
2022/02/01 08:30:24;;;;;;;9.63;3.80;;;7.60;99.90;;;;;;5011438;28;20205;-79
2022/02/01 08:32:51;;;;;;;13.13;3.75;;;7.60;99.90;;;;;;4978831;28;20202;-79
2022/02/01 08:35:17;;;;;;;8.70;4.45;;;7.60;99.90;;;;;;4995075;28;20542;-79
2022/02/01 08:37:43;;;;;;;8.17;3.47;;;7.60;99.90;;;;;;5006946;28;20198;-79
2022/02/01 08:40:12;;;;;;;7.17;3.83;;;7.60;99.90;;;;;;5012028;28;20565;-79
2022/02/01 08:42:37;;;;;;;15.80;3.85;;;7.60;99.90;;;;;;5012356;28;20573;-78
2022/02/01 08:45:04;;;;;;;9.57;4.07;;;7.60;99.90;;;;;;4994458;28;20188;-79
2022/02/01 08:47:30;;;;;;;11.27;5.55;;;7.60;99.90;;;;;;4994322;28;20186;-79
2022/02/01 08:49:55;;;;;;;11.07;4.87;;;7.70;99.90;;;;;;4994417;28;20553;-80
2022/02/01 08:52:37;;;;;;;8.20;4.17;;;7.70;99.90;;;;;;4994613;28;20174;-80
2022/02/01 08:55:05;;;;;;;8.20;5.10;;;7.70;99.90;;;;;;4988102;28;20194;-79
2022/02/01 08:57:31;;;;;;;7.78;4.40;;;7.80;99.90;;;;;;5012175;28;20170;-79
2022/02/01 09:00:05;;;;;;;6.95;3.55;;;7.80;99.90;;;;;;5010974;28;20220;-79
2022/02/01 09:02:31;;;;;;;6.00;3.72;;;7.80;99.90;;;;;;4994374;28;20818;-79
2022/02/01 09:04:57;;;;;;;9.13;3.85;;;7.80;99.90;;;;;;4993988;28;20578;-79
2022/02/01 09:07:24;;;;;;;6.53;4.85;;;7.80;99.90;;;;;;5010469;28;20192;-79
2022/02/01 09:09:50;;;;;;;8.38;3.30;;;7.80;99.90;;;;;;4993715;28;20221;-79
2022/02/01 09:12:18;;;;;;;6.43;3.27;;;7.80;99.90;;;;;;5011720;28;20178;-79
2022/02/01 09:14:47;;;;;;;7.55;4.40;;;7.80;99.90;;;;;;5012661;28;20243;-79
2022/02/01 09:17:17;;;;;;;8.65;3.78;;;7.90;99.90;;;;;;5011693;28;20635;-78
2022/02/01 09:19:43;;;;;;;6.80;3.10;;;7.90;99.90;;;;;;5006786;28;20216;-79
2022/02/01 09:22:10;;;;;;;6.60;4.70;;;7.90;99.90;;;;;;4985248;28;20208;-78
2022/02/01 09:24:36;;;;;;;4.65;2.67;;;7.90;99.90;;;;;;4986835;28;20189;-79
2022/02/01 09:27:02;;;;;;;4.63;2.65;;;7.90;99.90;;;;;;5011138;28;20265;-79
2022/02/01 09:29:28;;;;;;;5.10;3.30;;;8.00;99.90;;;;;;5010115;28;20360;-79
2022/02/01 09:31:55;;;;;;;9.03;3.30;;;8.00;99.90;;;;;;5011305;28;21120;-79
2022/02/01 09:34:22;;;;;;;4.57;2.50;;;8.10;99.90;;;;;;4985130;28;20589;-80
2022/02/01 09:36:53;;;;;;;4.50;2.20;;;8.10;99.90;;;;;;5011233;28;20175;-79
2022/02/01 09:39:21;;;;;;;4.03;2.38;;;8.20;99.90;;;;;;4993801;28;20201;-80
2022/02/01 09:41:48;;;;;;;4.00;2.63;;;8.20;99.90;;;;;;4985508;28;20170;-79
2022/02/01 09:44:15;;;;;;;4.05;2.72;;;8.30;99.90;;;;;;4993662;28;20185;-80
2022/02/01 09:46:49;;;;;;;4.43;1.80;;;8.30;99.90;;;;;;4993938;28;20495;-80
2022/02/01 09:49:16;;;;;;;3.47;2.08;;;8.40;99.90;;;;;;4999991;28;20277;-80
2022/02/01 09:51:44;;;;;;;5.38;2.05;;;8.40;99.90;;;;;;4999237;28;20519;-80
2022/02/01 09:54:10;;;;;;;2.22;1.70;;;8.50;99.90;;;;;;5015298;28;20651;-79
2022/02/01 09:56:36;;;;;;;3.35;1.40;;;8.50;99.90;;;;;;5015266;28;20174;-79
2022/02/01 09:59:16;;;;;;;2.17;1.47;;;8.50;99.90;;;;;;4989643;28;20257;-79
2022/02/01 10:01:56;;;;;;;3.45;2.25;;;8.60;99.90;;;;;;5010886;28;20592;-78
2022/02/01 10:04:27;;;;;;;2.03;1.50;;;8.60;99.90;;;;;;5013816;28;20174;-79
2022/02/01 10:06:55;;;;;;;2.22;1.30;;;8.70;99.90;;;;;;5005692;28;20185;-79
2022/02/01 10:09:20;;;;;;;1.63;1.15;;;8.70;99.90;;;;;;4988717;28;20793;-79
2022/02/01 10:11:48;;;;;;;2.63;1.70;;;8.80;99.90;;;;;;4993679;28;20186;-79
2022/02/01 10:14:26;;;;;;;3.08;1.55;;;8.80;99.90;;;;;;5014986;28;20186;-79
2022/02/01 10:16:54;;;;;;;2.03;1.55;;;8.90;99.90;;;;;;4997320;28;20182;-79
2022/02/01 10:19:22;;;;;;;3.60;1.50;;;8.90;99.90;;;;;;5014614;28;20210;-79
2022/02/01 10:21:56;;;;;;;4.10;1.60;;;9.00;99.90;;;;;;4995940;28;20186;-79
2022/02/01 10:24:38;;;;;;;6.00;1.88;;;9.00;99.90;;;;;;4993865;28;20515;-79
2022/02/01 10:27:18;;;;;;;3.88;1.50;;;9.00;99.90;;;;;;4997029;28;20233;-79
2022/02/01 10:30:19;;;;;;;4.95;1.00;;;9.10;99.90;;;;;;5014879;28;20217;-78
2022/02/01 10:38:00;;;;;;;4.80;1.00;;;9.20;99.90;;;;;;5014409;28;20208;-79
2022/02/01 10:40:44;;;;;;;1.60;0.93;;;9.20;99.90;;;;;;5014977;28;20659;-80
2022/02/01 10:43:27;;;;;;;1.88;0.88;;;9.30;99.90;;;;;;4994430;28;20190;-79
2022/02/01 10:45:59;;;;;;;1.75;0.98;;;9.30;99.90;;;;;;4993002;28;20593;-78
2022/02/01 10:48:27;;;;;;;2.38;0.95;;;9.30;99.90;;;;;;5013972;28;20280;-79
2022/02/01 10:51:05;;;;;;;3.67;2.00;;;9.40;99.90;;;;;;5004617;28;20208;-79
2022/02/01 10:53:32;;;;;;;2.17;0.90;;;9.40;99.90;;;;;;5014091;28;20201;-79
2022/02/01 10:56:00;;;;;;;2.15;0.90;;;9.50;99.90;;;;;;4988302;28;20218;-79
2022/02/01 10:58:26;;;;;;;4.60;1.20;;;9.50;99.90;;;;;;4996091;28;20205;-80
2022/02/01 11:00:53;;;;;;;3.03;1.00;;;9.50;99.90;;;;;;5013166;28;20594;-80
2022/02/01 11:03:21;;;;;;;1.60;0.80;;;9.60;99.90;;;;;;4998849;28;20205;-79
2022/02/01 11:05:49;;;;;;;2.10;0.90;;;9.60;99.90;;;;;;5005601;28;20250;-79
2022/02/01 11:08:27;;;;;;;1.92;0.80;;;9.60;99.90;;;;;;5013595;28;20612;-79
2022/02/01 11:10:55;;;;;;;1.70;0.80;;;9.70;99.90;;;;;;4990881;28;20198;-79
2022/02/01 11:13:21;;;;;;;1.50;1.00;;;9.70;99.90;;;;;;4988656;28;20575;-80
2022/02/01 11:16:02;;;;;;;2.00;1.10;;;9.80;99.90;;;;;;4978588;28;20224;-79
2022/02/01 11:18:28;;;;;;;1.73;0.80;;;9.80;99.90;;;;;;4992265;28;20301;-79
2022/02/01 11:21:09;;;;;;;1.90;1.00;;;9.80;99.90;;;;;;5012639;28;20221;-81
2022/02/01 11:23:51;;;;;;;1.60;0.88;;;9.80;99.90;;;;;;5011347;28;20201;-81
2022/02/01 11:26:19;;;;;;;4.13;1.70;;;9.80;99.90;;;;;;5000831;28;20242;-80
2022/02/01 11:29:12;;;;;;;3.75;1.70;;;9.80;99.90;;;;;;4979222;28;20194;-79
2022/02/01 11:31:47;;;;;;;2.83;1.60;;;9.80;99.90;;;;;;5008398;28;20262;-80
2022/02/01 11:34:25;;;;;;;3.50;1.40;;;9.80;99.90;;;;;;4993158;28;20584;-80
2022/02/01 11:37:03;;;;;;;1.70;1.10;;;9.80;99.90;;;;;;4979371;28;20679;-79
2022/02/01 11:39:30;;;;;;;1.75;1.00;;;9.90;99.90;;;;;;5009978;28;20202;-80
2022/02/01 11:41:57;;;;;;;3.25;2.03;;;9.80;99.90;;;;;;5012319;28;20182;-79
2022/02/01 11:44:26;;;;;;;4.70;1.83;;;9.80;99.90;;;;;;5011918;28;20225;-79
2022/02/01 11:47:06;;;;;;;3.15;1.10;;;9.80;99.90;;;;;;4977482;28;20545;-78
2022/02/01 11:49:34;;;;;;;1.48;0.93;;;9.80;99.90;;;;;;5004148;28;20618;-79
2022/02/01 11:52:12;;;;;;;1.50;0.90;;;9.80;99.90;;;;;;4985625;28;20506;-80
2022/02/01 11:54:39;;;;;;;3.15;1.50;;;9.80;99.90;;;;;;5020378;28;20175;-80
2022/02/01 11:57:14;;;;;;;3.60;2.10;;;9.80;99.90;;;;;;5012702;28;20202;-79
2022/02/01 11:59:50;;;;;;;4.03;2.38;;;9.70;99.90;;;;;;4997187;28;20276;-79
2022/02/01 12:02:33;;;;;;;3.38;2.00;;;9.70;99.90;;;;;;5013485;28;20228;-80
2022/02/01 12:05:06;;;;;;;2.90;1.42;;;9.70;99.90;;;;;;4993380;28;20544;-79
2022/02/01 12:07:42;;;;;;;2.38;1.30;;;9.70;99.90;;;;;;5003416;28;20547;-79
2022/02/01 12:10:15;;;;;;;2.28;1.00;;;9.70;99.90;;;;;;5008427;28;20579;-79
2022/02/01 12:12:43;;;;;;;2.17;0.90;;;9.70;99.90;;;;;;4978206;28;20650;-79
2022/02/01 12:15:09;;;;;;;3.08;1.20;;;9.70;99.90;;;;;;5011873;28;20586;-79
2022/02/01 12:17:40;;;;;;;1.85;0.80;;;9.70;99.90;;;;;;4984404;28;20166;-78
2022/02/01 12:20:13;;;;;;;1.58;0.90;;;9.60;99.90;;;;;;5009493;28;20186;-79
2022/02/01 12:23:01;;;;;;;2.78;0.90;;;9.60;99.90;;;;;;4994390;28;20197;-79
2022/02/01 12:25:29;;;;;;;1.65;1.33;;;9.60;99.90;;;;;;4992450;28;20179;-80
2022/02/01 12:27:55;;;;;;;1.80;1.00;;;9.60;99.90;;;;;;5011615;28;20201;-79
2022/02/01 12:30:21;;;;;;;1.60;1.00;;;9.60;99.90;;;;;;4993627;28;20558;-79
2022/02/01 12:32:56;;;;;;;1.40;0.80;;;9.60;99.90;;;;;;4990432;28;20589;-79
2022/02/01 12:35:42;;;;;;;2.00;0.98;;;9.60;99.90;;;;;;5012094;28;20581;-79
2022/02/01 12:38:16;;;;;;;2.25;1.05;;;9.60;99.90;;;;;;4977042;28;20191;-80
2022/02/01 12:40:41;;;;;;;1.65;1.15;;;9.60;99.90;;;;;;4990443;28;20250;-79
2022/02/01 12:43:16;;;;;;;1.93;1.10;;;9.60;99.90;;;;;;5011422;28;20201;-79
2022/02/01 12:45:55;;;;;;;1.30;0.80;;;9.60;99.90;;;;;;4974860;28;20212;-78
2022/02/01 12:48:20;;;;;;;1.95;0.60;;;9.60;99.90;;;;;;4999614;28;20201;-79
2022/02/01 12:50:58;;;;;;;1.50;0.80;;;9.60;99.90;;;;;;4997011;28;20198;-78
2022/02/01 12:53:26;;;;;;;1.08;0.60;;;9.60;99.90;;;;;;5007735;28;20739;-79
2022/02/01 12:55:52;;;;;;;1.25;0.70;;;9.60;99.90;;;;;;4989230;28;20755;-78
2022/02/01 12:58:18;;;;;;;1.50;0.70;;;9.60;99.90;;;;;;4982038;28;20199;-81
2022/02/01 13:00:51;;;;;;;1.83;0.70;;;9.60;99.90;;;;;;5007160;28;20591;-79
2022/02/01 13:03:17;;;;;;;2.08;0.80;;;9.60;99.90;;;;;;4990610;28;20174;-78
2022/02/01 13:05:43;;;;;;;3.92;0.80;;;9.60;99.90;;;;;;4997649;28;20241;-78
2022/02/01 13:16:25;;;;;;;1.95;1.02;;;9.70;99.90;;;;;;4993798;28;20264;-75
2022/02/01 13:21:31;;;;;;;1.30;0.80;;;9.70;99.90;;;;;;5010927;28;20182;-75
2022/02/01 13:23:59;;;;;;;1.50;0.80;;;9.70;99.90;;;;;;5009403;28;20186;-75
2022/02/01 13:26:28;;;;;;;1.10;0.65;;;9.70;99.90;;;;;;5010920;28;20518;-75
2022/02/01 13:29:07;;;;;;;1.35;0.70;;;9.80;99.90;;;;;;4993376;28;20190;-75
2022/02/01 13:31:35;;;;;;;1.40;0.80;;;9.80;99.90;;;;;;5006784;28;20593;-75
2022/02/01 13:34:04;;;;;;;1.20;0.70;;;9.80;99.90;;;;;;5010427;28;20189;-74
2022/02/01 13:36:56;;;;;;;1.20;0.80;;;9.80;99.90;;;;;;5001864;28;20336;-76
2022/02/01 13:39:23;;;;;;;1.50;0.70;;;9.90;99.90;;;;;;5005476;28;20202;-76
2022/02/01 13:41:57;;;;;;;2.50;0.88;;;9.90;99.90;;;;;;5009341;28;20654;-76
2022/02/01 13:44:23;;;;;;;1.10;0.70;;;9.90;99.90;;;;;;5001221;28;20188;-75
2022/02/01 13:46:59;;;;;;;1.20;0.70;;;9.90;99.90;;;;;;4993033;28;20178;-75
2022/02/01 13:49:25;;;;;;;1.88;0.80;;;10.00;99.90;;;;;;5007277;28;20659;-78
2022/02/01 13:51:53;;;;;;;1.30;0.70;;;10.00;99.90;;;;;;4989173;28;20654;-79
2022/02/01 13:54:19;;;;;;;1.45;0.90;;;10.00;99.90;;;;;;5007338;28;20182;-79
2022/02/01 13:56:47;;;;;;;1.50;1.00;;;10.00;99.90;;;;;;5010985;28;20729;-79
2022/02/01 13:59:18;;;;;;;5.05;1.15;;;10.00;99.90;;;;;;4976906;28;20723;-74
2022/02/01 14:01:46;;;;;;;2.63;0.98;;;10.00;99.90;;;;;;5010281;28;20266;-75
2022/02/01 14:04:22;;;;;;;1.85;0.90;;;10.10;99.90;;;;;;4992983;28;20179;-74
2022/02/01 14:07:03;;;;;;;1.67;1.10;;;10.10;99.90;;;;;;5001055;28;20720;-75
2022/02/01 14:12:35;;;;;;;1.77;1.10;;;10.00;99.90;;;;;;4991709;28;20178;-75
2022/02/01 14:16:14;;;;;;;1.33;0.75;;;10.10;99.90;;;;;;5009005;28;20182;-75
2022/02/01 14:28:50;;;;;;;3.05;0.75;;;10.10;99.90;;;;;;4993357;28;20314;-75
2022/02/01 14:34:44;;;;;;;1.65;0.80;;;10.10;99.90;;;;;;4999049;28;20235;-76
2022/02/01 14:36:55;;;;;;;1.25;0.75;;;10.10;99.90;;;;;;4999151;28;20191;-75
2022/02/01 14:45:04;;;;;;;1.60;1.10;;;10.10;99.90;;;;;;4996103;28;20265;-75
2022/02/01 14:47:30;;;;;;;1.58;1.23;;;10.10;99.90;;;;;;5013716;28;20396;-75
2022/02/01 14:49:56;;;;;;;1.50;0.90;;;10.10;99.90;;;;;;4995459;28;20236;-75
2022/02/01 14:52:22;;;;;;;1.77;1.00;;;10.10;99.90;;;;;;5013567;28;20224;-75
2022/02/01 14:54:54;;;;;;;1.70;1.20;;;10.10;99.90;;;;;;5013718;28;20569;-74
2022/02/01 15:13:35;;;;;;;3.17;1.60;;;10.10;99.90;;;;;;5013086;28;20170;-74
2022/02/01 15:16:01;;;;;;;4.43;3.17;;;10.10;99.90;;;;;;5003588;28;20240;-75
2022/02/01 15:18:27;;;;;;;2.90;2.50;;;10.20;99.90;;;;;;4995424;28;20206;-74